Time;durP1;ratioP1;P1;durP2;ratioP2;P2;SDS_P1;SDS_P2;PMS_P1;PMS_P2;Temp;Humidity;BMP_temperature;BMP_pressure;BME280_temperature;BME280_humidity;BME280_pressure;Samples;Min_cycle;Max_cycle;Signal;HPM_P1;HPM_P2
2022/11/22 00:01:54;;;;;;;;;2.00;2.00;;;;;7.60;81.91;99199.16;4996287;28;45630;-69
2022/11/22 00:04:20;;;;;;;;;1.50;1.50;;;;;7.52;82.71;99186.41;4996412;28;45315;-69
2022/11/22 00:06:45;;;;;;;;;2.00;0.75;;;;;7.51;82.60;99186.53;4996674;28;45344;-70
2022/11/22 00:09:11;;;;;;;;;3.00;2.00;;;;;7.30;82.43;99151.75;4996218;28;45323;-69
2022/11/22 00:11:36;;;;;;;;;3.50;2.00;;;;;7.47;83.05;99182.41;4995901;28;45339;-71
2022/11/22 00:14:01;;;;;;;;;1.00;1.00;;;;;7.34;82.46;99170.00;4996483;28;45401;-71
2022/11/22 00:16:27;;;;;;;;;1.00;1.00;;;;;7.19;83.45;99153.38;4995778;28;45667;-70
2022/11/22 00:18:52;;;;;;;;;1.25;0.00;;;;;7.22;83.40;99150.50;4995985;28;45451;-70
2022/11/22 00:21:17;;;;;;;;;1.00;1.00;;;;;7.52;82.61;99194.38;4996348;28;45442;-70
2022/11/22 00:23:43;;;;;;;;;1.00;1.00;;;;;7.42;83.54;99188.03;4995912;28;45455;-70
2022/11/22 00:26:10;;;;;;;;;2.00;1.00;;;;;7.34;82.96;99172.66;4995605;28;45580;-71
2022/11/22 00:28:39;;;;;;;;;1.50;1.00;;;;;7.49;82.65;99193.75;4977785;28;47654;-70
2022/11/22 00:31:04;;;;;;;;;1.00;0.00;;;;;7.24;82.81;99148.56;4995772;28;45424;-70
2022/11/22 00:33:29;;;;;;;;;1.75;0.25;;;;;7.41;82.57;99186.34;4996109;28;45648;-70
2022/11/22 00:35:55;;;;;;;;;1.00;1.00;;;;;7.43;83.35;99180.94;4996017;28;45529;-71
2022/11/22 00:38:20;;;;;;;;;0.75;0.25;;;;;7.21;83.74;99142.66;4995719;28;46509;-70
2022/11/22 00:40:46;;;;;;;;;1.25;1.25;;;;;7.39;83.33;99178.47;4995658;28;45379;-70
2022/11/22 00:43:11;;;;;;;;;0.00;0.00;;;;;7.43;81.77;99180.94;4978196;28;45457;-70
2022/11/22 00:45:38;;;;;;;;;3.00;1.00;;;;;7.34;82.90;99158.53;4995714;28;45438;-70
2022/11/22 00:48:04;;;;;;;;;0.00;0.00;;;;;7.29;83.03;99160.66;4995765;28;47113;-69
2022/11/22 00:50:29;;;;;;;;;0.50;0.50;;;;;7.48;83.26;99176.97;4977889;28;46413;-69
2022/11/22 00:52:55;;;;;;;;;3.25;1.00;;;;;7.43;82.12;99165.84;4995900;28;45454;-70
2022/11/22 00:55:20;;;;;;;;;1.50;1.00;;;;;6.94;81.60;99087.97;4994667;28;45475;-69
2022/11/22 00:57:45;;;;;;;;;0.00;0.00;;;;;7.50;81.87;99172.41;4994975;28;45576;-70
2022/11/22 01:00:11;;;;;;;;;2.00;1.00;;;;;7.36;82.19;99144.22;4995430;28;45546;-69
2022/11/22 01:02:36;;;;;;;;;1.50;0.75;;;;;7.53;81.00;99174.00;4995561;28;45839;-70
2022/11/22 01:05:02;;;;;;;;;1.75;1.00;;;;;7.19;81.86;99120.69;4995210;28;45754;-70
2022/11/22 01:07:27;;;;;;;;;1.75;1.00;;;;;7.29;80.94;99144.75;4994821;28;45529;-70
2022/11/22 01:09:53;;;;;;;;;3.25;0.50;;;;;7.34;81.25;99147.94;4977287;28;45429;-69
2022/11/22 01:12:18;;;;;;;;;2.00;0.25;;;;;7.36;80.71;99157.47;4977663;28;45346;-68
2022/11/22 01:14:43;;;;;;;;;0.75;0.75;;;;;7.42;81.54;99148.22;4977442;28;45495;-68
2022/11/22 01:17:09;;;;;;;;;2.50;2.50;;;;;7.36;82.16;99130.94;4995012;28;46457;-68
2022/11/22 01:19:34;;;;;;;;;0.50;0.00;;;;;7.57;81.49;99173.69;4995170;28;45594;-68
2022/11/22 01:21:59;;;;;;;;;0.25;0.25;;;;;7.56;81.78;99176.44;4995671;28;45347;-68
2022/11/22 01:24:26;;;;;;;;;0.50;0.00;;;;;7.26;81.09;99124.63;4995094;28;45363;-68
2022/11/22 01:26:51;;;;;;;;;2.00;1.00;;;;;7.60;81.20;99185.00;4995203;28;46181;-68
2022/11/22 01:29:17;;;;;;;;;0.50;0.00;;;;;7.59;81.37;99173.56;4994951;28;45813;-68
2022/11/22 01:31:42;;;;;;;;;3.00;1.00;;;;;7.51;82.11;99155.53;4987840;28;45614;-68
2022/11/22 01:34:07;;;;;;;;;1.75;0.00;;;;;7.55;81.54;99161.47;4986197;28;45455;-69
2022/11/22 01:36:33;;;;;;;;;2.00;1.00;;;;;7.48;81.46;99150.44;4987046;28;48357;-69
2022/11/22 01:38:58;;;;;;;;;0.50;0.00;;;;;7.47;81.09;99148.75;4992131;28;45570;-68
2022/11/22 01:41:23;;;;;;;;;3.50;2.00;;;;;7.58;81.25;99161.25;4992541;28;45422;-68
2022/11/22 01:43:49;;;;;;;;;1.00;1.00;;;;;7.63;82.49;99163.59;4993347;28;45371;-69
2022/11/22 01:46:36;;;;;;;;;1.00;0.00;;;;;7.66;82.49;99166.84;4991952;28;46153;-68
2022/11/22 01:49:15;;;;;;;;;0.50;0.50;;;;;7.60;81.75;99148.72;4992576;28;45749;-69
2022/11/22 01:51:45;;;;;;;;;1.50;1.00;;;;;7.72;82.44;99168.19;4992800;28;45567;-68
2022/11/22 01:54:16;;;;;;;;;1.00;0.00;;;;;7.71;81.88;99167.34;4992381;28;45436;-68
2022/11/22 01:56:45;;;;;;;;;3.00;0.75;;;;;7.67;82.29;99142.00;4992729;28;46307;-68
2022/11/22 01:59:14;;;;;;;;;0.25;0.25;;;;;7.74;82.31;99163.63;4992494;28;46883;-68
2022/11/22 02:01:40;;;;;;;;;1.00;1.00;;;;;7.72;82.33;99158.44;4976788;28;45460;-69
2022/11/22 02:04:08;;;;;;;;;0.00;0.00;;;;;7.48;82.35;99125.72;4993329;28;45291;-69
2022/11/22 02:07:16;;;;;;;;;0.75;0.75;;;;;7.72;82.26;99153.13;4994026;28;45862;-68
2022/11/22 02:09:43;;;;;;;;;0.00;0.00;;;;;7.47;81.77;99100.16;4914387;28;45426;-68
2022/11/22 02:12:10;;;;;;;;;0.00;0.00;;;;;7.73;82.56;99157.50;4914881;28;45510;-69
2022/11/22 02:14:37;;;;;;;;;0.00;0.00;;;;;7.61;82.58;99150.41;4914223;28;45480;-69
2022/11/22 02:17:02;;;;;;;;;0.00;0.00;;;;;7.57;82.38;99144.47;4914332;28;46222;-69
2022/11/22 02:19:43;;;;;;;;;1.00;0.00;;;;;7.42;82.66;99124.34;4913125;28;45747;-68
2022/11/22 02:22:28;;;;;;;;;1.75;1.25;;;;;7.64;82.24;99144.03;4914211;28;45753;-69
2022/11/22 02:25:02;;;;;;;;;0.50;0.50;;;;;7.67;83.24;99149.97;4914055;28;45475;-69
2022/11/22 02:27:28;;;;;;;;;1.75;0.00;;;;;7.50;82.16;99134.41;4914043;28;45589;-68
2022/11/22 02:29:53;;;;;;;;;1.00;0.00;;;;;7.70;82.13;99159.50;4914129;28;45377;-68
2022/11/22 02:32:18;;;;;;;;;1.75;1.00;;;;;7.45;82.84;99128.59;4914076;28;45567;-69
2022/11/22 02:34:48;;;;;;;;;1.00;1.00;;;;;7.63;83.39;99160.94;4914354;28;45459;-69
2022/11/22 02:37:18;;;;;;;;;1.00;0.00;;;;;7.61;82.96;99139.78;4913560;28;45826;-69
2022/11/22 02:39:47;;;;;;;;;0.00;0.00;;;;;7.43;83.17;99114.59;4913990;28;45436;-69
2022/11/22 02:42:12;;;;;;;;;1.75;0.00;;;;;7.65;82.90;99145.72;4914026;28;45546;-68
2022/11/22 02:44:39;;;;;;;;;0.00;0.00;;;;;7.26;83.74;99084.84;4913905;28;45451;-68
2022/11/22 02:47:04;;;;;;;;;0.00;0.00;;;;;7.51;83.16;99128.16;4980953;28;45517;-69
2022/11/22 02:49:30;;;;;;;;;0.00;0.00;;;;;7.26;83.83;99082.19;4976065;28;45794;-68
2022/11/22 02:51:55;;;;;;;;;0.00;0.00;;;;;7.68;83.18;99134.88;4994007;28;45418;-68
2022/11/22 02:54:20;;;;;;;;;0.00;0.00;;;;;7.63;83.97;99132.56;4993769;28;45462;-69
2022/11/22 02:56:46;;;;;;;;;1.00;1.00;;;;;7.75;83.63;99125.53;4993094;28;45556;-68
2022/11/22 02:59:12;;;;;;;;;0.00;0.00;;;;;7.73;83.30;99128.28;4993670;28;45458;-69
2022/11/22 03:01:37;;;;;;;;;1.75;0.75;;;;;7.72;83.68;99131.91;4993913;28;45404;-69
2022/11/22 03:04:03;;;;;;;;;0.00;0.00;;;;;7.74;83.77;99135.28;4976066;28;45664;-68
2022/11/22 03:06:28;;;;;;;;;2.75;1.00;;;;;7.71;83.81;99106.31;4993456;28;46196;-69
2022/11/22 03:08:54;;;;;;;;;0.00;0.00;;;;;7.72;84.84;99102.72;4993277;28;45483;-69
2022/11/22 03:11:19;;;;;;;;;1.00;0.00;;;;;7.68;84.12;99090.63;4993854;28;45422;-69
2022/11/22 03:13:44;;;;;;;;;1.00;0.00;;;;;7.73;84.35;99092.91;4976043;28;45419;-69
2022/11/22 03:16:10;;;;;;;;;1.00;0.00;;;;;7.46;84.53;99034.78;4993413;28;46319;-68
2022/11/22 03:18:36;;;;;;;;;0.00;0.00;;;;;7.48;84.46;99043.47;4993468;28;45385;-69
2022/11/22 03:21:07;;;;;;;;;0.75;0.25;;;;;7.85;84.01;99096.47;4993451;28;45457;-70
2022/11/22 03:23:33;;;;;;;;;1.50;0.00;;;;;7.80;85.33;99096.84;4993376;28;45486;-69
2022/11/22 03:26:05;;;;;;;;;2.50;2.00;;;;;7.58;84.87;99055.97;4993164;28;46447;-69
2022/11/22 03:28:30;;;;;;;;;0.00;0.00;;;;;7.82;85.10;99092.25;4993268;28;45706;-69
2022/11/22 03:30:56;;;;;;;;;1.75;0.75;;;;;7.86;84.73;99111.47;4976989;28;45677;-69
2022/11/22 03:33:21;;;;;;;;;0.00;0.00;;;;;7.83;84.89;99093.94;4996819;28;45394;-69
2022/11/22 03:35:47;;;;;;;;;1.00;1.00;;;;;7.77;84.93;99086.44;4996775;28;45612;-69
2022/11/22 03:38:12;;;;;;;;;1.00;1.00;;;;;7.78;85.13;99077.50;4992017;28;45506;-69
2022/11/22 03:40:37;;;;;;;;;1.25;1.25;;;;;7.17;86.01;98974.94;4985731;28;45412;-69
2022/11/22 03:43:03;;;;;;;;;0.00;0.00;;;;;7.79;85.39;99067.72;4975610;28;45631;-69
2022/11/22 03:45:28;;;;;;;;;2.00;0.00;;;;;7.88;85.74;99090.94;4976988;28;45921;-69
2022/11/22 03:47:57;;;;;;;;;2.00;0.00;;;;;7.87;85.81;99091.91;4977726;28;45383;-69
2022/11/22 03:50:23;;;;;;;;;0.25;0.00;;;;;7.74;86.15;99055.63;4986606;28;45393;-69
2022/11/22 03:52:49;;;;;;;;;1.25;1.00;;;;;7.84;85.79;99090.34;4961400;28;45376;-69
2022/11/22 03:55:14;;;;;;;;;3.00;2.50;;;;;7.85;85.69;99083.22;4996493;28;45403;-69
2022/11/22 03:57:40;;;;;;;;;1.00;1.00;;;;;7.86;85.92;99083.09;4996462;28;45442;-68
2022/11/22 04:00:06;;;;;;;;;0.00;0.00;;;;;7.93;86.81;99085.31;4994913;28;45428;-69
2022/11/22 04:02:31;;;;;;;;;0.00;0.00;;;;;7.88;86.60;99082.97;4986589;28;45733;-69
2022/11/22 04:04:56;;;;;;;;;0.00;0.00;;;;;7.85;86.19;99094.66;4976084;28;45566;-69
2022/11/22 04:07:22;;;;;;;;;0.00;0.00;;;;;7.96;86.91;99080.59;4985674;28;45621;-69
2022/11/22 04:09:47;;;;;;;;;1.00;1.00;;;;;8.03;86.32;99096.91;4976693;28;45426;-69
2022/11/22 04:12:13;;;;;;;;;1.25;0.75;;;;;7.80;86.47;99064.13;4985225;28;45466;-70
2022/11/22 04:17:40;;;;;;;;;0.00;0.00;;;;;8.04;86.63;99099.47;4976294;28;45478;-70
2022/11/22 04:23:11;;;;;;;;;0.75;0.75;;;;;8.12;86.10;99074.97;4987390;28;45425;-70
2022/11/22 04:25:39;;;;;;;;;0.00;0.00;;;;;8.15;86.24;99074.75;4976132;28;45541;-70
2022/11/22 04:28:06;;;;;;;;;0.75;0.00;;;;;8.18;86.13;99065.69;4965374;28;45882;-70
2022/11/22 04:33:16;;;;;;;;;2.00;1.00;;;;;8.01;85.78;99043.09;4989544;28;45649;-70
2022/11/22 04:35:43;;;;;;;;;1.00;1.00;;;;;7.98;86.00;99014.13;4982078;28;45387;-70
2022/11/22 04:38:08;;;;;;;;;1.00;0.00;;;;;8.20;85.79;99053.16;4976009;28;45464;-70
2022/11/22 04:40:34;;;;;;;;;0.00;0.00;;;;;8.25;85.73;99053.66;4962174;28;45575;-70
2022/11/22 04:45:44;;;;;;;;;0.00;0.00;;;;;7.99;85.36;98995.41;4995634;28;45446;-70
2022/11/22 04:48:11;;;;;;;;;2.75;0.25;;;;;8.28;85.78;99047.25;4995299;28;45323;-69
2022/11/22 04:53:22;;;;;;;;;0.25;0.25;;;;;8.06;86.04;99015.22;4995895;28;45612;-70
2022/11/22 04:55:48;;;;;;;;;0.25;0.25;;;;;8.09;85.71;99020.28;4995526;28;46428;-70
2022/11/22 04:58:14;;;;;;;;;0.50;0.00;;;;;8.15;85.49;99036.72;4995572;28;45582;-70
2022/11/22 05:00:39;;;;;;;;;0.00;0.00;;;;;8.27;86.09;99064.16;4995642;28;45599;-70
2022/11/22 05:03:06;;;;;;;;;0.50;0.50;;;;;8.30;86.04;99051.50;4995498;28;45404;-70
2022/11/22 05:05:36;;;;;;;;;0.00;0.00;;;;;8.04;85.63;99003.88;4995209;28;45531;-70
2022/11/22 05:08:02;;;;;;;;;1.00;0.00;;;;;8.00;85.89;99017.47;4995381;28;45499;-70
2022/11/22 05:10:27;;;;;;;;;0.00;0.00;;;;;8.33;85.64;99053.06;4995472;28;45495;-70
2022/11/22 05:12:53;;;;;;;;;0.75;0.75;;;;;8.32;85.85;99060.16;4995269;28;45438;-70
2022/11/22 05:15:19;;;;;;;;;0.00;0.00;;;;;8.30;86.23;99054.16;4994814;28;47499;-70
2022/11/22 05:17:44;;;;;;;;;3.25;0.00;;;;;8.12;86.04;99026.34;4995181;28;45411;-70
2022/11/22 05:20:10;;;;;;;;;0.50;0.50;;;;;8.25;86.12;99033.22;4995388;28;45382;-70
2022/11/22 05:25:19;;;;;;;;;0.00;0.00;;;;;8.31;86.99;99055.81;4994958;28;45444;-70
2022/11/22 05:27:45;;;;;;;;;1.25;0.00;;;;;8.11;87.70;99037.91;4994867;28;45443;-71
2022/11/22 05:30:10;;;;;;;;;1.00;0.00;;;;;8.15;88.85;99057.97;4995115;28;45439;-71
2022/11/22 05:32:36;;;;;;;;;0.00;0.00;;;;;8.22;90.18;99062.69;4995361;28;45525;-71
2022/11/22 05:35:01;;;;;;;;;0.25;0.00;;;;;8.13;91.47;99057.25;4977062;28;47642;-71
2022/11/22 05:37:27;;;;;;;;;0.00;0.00;;;;;8.20;91.22;99066.44;4976945;28;45456;-71
2022/11/22 05:39:53;;;;;;;;;0.00;0.00;;;;;8.13;92.05;99068.69;4977449;28;45395;-72
2022/11/22 05:42:18;;;;;;;;;0.75;0.00;;;;;7.36;93.12;98945.25;4995041;28;45386;-72
2022/11/22 05:44:44;;;;;;;;;0.00;0.00;;;;;7.63;94.00;98993.72;4994697;28;45608;-72
2022/11/22 05:47:09;;;;;;;;;0.00;0.00;;;;;8.05;95.02;99076.41;4994605;28;45481;-72
2022/11/22 05:49:35;;;;;;;;;0.00;0.00;;;;;7.74;95.13;99036.22;4994704;28;45661;-72
2022/11/22 05:52:02;;;;;;;;;0.25;0.25;;;;;8.03;94.52;99081.84;4994290;28;45514;-72
2022/11/22 05:54:27;;;;;;;;;0.00;0.00;;;;;7.76;95.06;99052.91;4994355;28;45427;-72
2022/11/22 05:56:53;;;;;;;;;0.00;0.00;;;;;7.77;95.90;99053.72;4994563;28;45403;-72
2022/11/22 05:59:19;;;;;;;;;0.00;0.00;;;;;7.85;95.92;99085.88;4994463;28;45300;-72
2022/11/22 06:01:44;;;;;;;;;0.00;0.00;;;;;7.91;95.87;99085.41;4994657;28;45340;-72
2022/11/22 06:04:10;;;;;;;;;0.00;0.00;;;;;7.57;95.92;99010.94;4993569;28;45659;-72
2022/11/22 06:06:35;;;;;;;;;2.00;0.00;;;;;7.75;96.17;99027.31;4994247;28;45367;-72
2022/11/22 06:09:01;;;;;;;;;0.00;0.00;;;;;8.13;95.80;99067.88;4994323;28;45370;-72
2022/11/22 06:11:27;;;;;;;;;0.00;0.00;;;;;7.51;95.21;98959.16;4994424;28;45288;-72
2022/11/22 06:13:55;;;;;;;;;1.50;0.00;;;;;7.45;94.87;98953.47;4994070;28;45728;-72
2022/11/22 06:16:20;;;;;;;;;0.50;0.50;;;;;8.13;94.73;99063.41;4976317;28;45395;-72
2022/11/22 06:18:46;;;;;;;;;2.25;0.75;;;;;8.17;94.89;99061.38;4975501;28;45466;-72
2022/11/22 06:21:14;;;;;;;;;0.25;0.25;;;;;8.15;96.71;99058.81;4993743;28;45565;-72
2022/11/22 06:23:40;;;;;;;;;2.00;2.00;;;;;8.07;96.27;99054.09;4993662;28;46524;-71
2022/11/22 06:26:13;;;;;;;;;1.25;0.75;;;;;8.16;95.72;99067.63;4994065;28;45508;-71
2022/11/22 06:28:39;;;;;;;;;5.25;2.00;;;;;8.07;95.64;99056.75;4993909;28;45316;-71
2022/11/22 06:31:11;;;;;;;;;3.00;1.00;;;;;8.19;95.42;99075.34;4992015;28;45289;-73
2022/11/22 06:33:36;;;;;;;;;2.75;2.00;;;;;8.11;95.03;99062.69;4979703;28;45481;-71
2022/11/22 06:36:07;;;;;;;;;1.50;1.00;;;;;7.84;95.59;99015.13;4979795;28;45470;-72
2022/11/22 06:38:33;;;;;;;;;1.50;1.25;;;;;8.09;95.70;99060.13;4973938;28;45450;-70
2022/11/22 06:41:06;;;;;;;;;1.00;1.00;;;;;8.15;96.04;99068.59;4974350;28;45609;-72
2022/11/22 06:43:33;;;;;;;;;0.50;0.50;;;;;8.20;95.62;99066.44;4980670;28;45681;-71
2022/11/22 06:46:00;;;;;;;;;0.25;0.25;;;;;8.21;94.58;99068.13;4993936;28;45438;-71
2022/11/22 06:48:29;;;;;;;;;1.00;1.00;;;;;8.21;94.42;99058.34;4993709;28;45449;-70
2022/11/22 06:50:58;;;;;;;;;0.75;0.00;;;;;8.19;95.15;99064.72;4993818;28;45537;-71
2022/11/22 06:53:29;;;;;;;;;0.00;0.00;;;;;8.12;94.54;99052.88;4976237;28;46188;-72
2022/11/22 06:56:00;;;;;;;;;1.75;1.00;;;;;8.21;94.23;99068.97;4992258;28;45585;-72
2022/11/22 06:58:26;;;;;;;;;0.25;0.25;;;;;7.60;94.82;98970.06;4992195;28;45534;-72
2022/11/22 07:00:51;;;;;;;;;2.50;1.00;;;;;8.12;94.01;99052.88;4976001;28;45421;-72
2022/11/22 07:03:16;;;;;;;;;0.00;0.00;;;;;8.07;94.22;99054.09;4993366;28;46259;-72
2022/11/22 07:05:49;;;;;;;;;0.25;0.25;;;;;8.32;94.10;99081.44;4984335;28;45466;-72
2022/11/22 07:08:14;;;;;;;;;0.00;0.00;;;;;7.83;93.75;99019.63;4977381;28;45399;-72
2022/11/22 07:10:40;;;;;;;;;0.00;0.00;;;;;8.05;93.82;99048.03;4977879;28;45593;-72
2022/11/22 07:13:05;;;;;;;;;0.00;0.00;;;;;8.11;93.18;99072.44;4984642;28;45432;-72
2022/11/22 07:15:30;;;;;;;;;1.50;0.00;;;;;8.11;93.76;99068.00;4997336;28;45677;-72
2022/11/22 07:17:56;;;;;;;;;0.00;0.00;;;;;8.09;93.52;99046.84;4997053;28;45553;-72
2022/11/22 07:20:21;;;;;;;;;0.00;0.00;;;;;8.27;93.45;99075.63;4996032;28;45420;-72
2022/11/22 07:22:46;;;;;;;;;0.00;0.00;;;;;7.93;92.46;99021.56;4996964;28;46340;-72
2022/11/22 07:25:12;;;;;;;;;0.00;0.00;;;;;8.20;92.54;99077.88;4986980;28;45545;-72
2022/11/22 07:27:37;;;;;;;;;0.00;0.00;;;;;8.11;92.84;99069.78;4992812;28;45743;-72
2022/11/22 07:30:03;;;;;;;;;1.75;0.25;;;;;8.13;93.26;99083.81;4997311;28;45557;-72
2022/11/22 07:32:28;;;;;;;;;0.00;0.00;;;;;8.30;92.12;99115.25;4996904;28;46702;-72
2022/11/22 07:34:53;;;;;;;;;0.00;0.00;;;;;8.37;92.31;99124.44;4996953;28;45352;-72
2022/11/22 07:37:19;;;;;;;;;0.00;0.00;;;;;8.34;92.31;99137.97;4997011;28;45367;-73
2022/11/22 07:39:44;;;;;;;;;0.00;0.00;;;;;8.17;92.69;99106.50;4996786;28;45494;-72
2022/11/22 07:42:10;;;;;;;;;0.00;0.00;;;;;8.18;91.96;99106.41;4972528;28;46715;-71
2022/11/22 07:44:35;;;;;;;;;0.00;0.00;;;;;8.26;92.14;99132.38;4978593;28;45466;-72
2022/11/22 07:47:00;;;;;;;;;0.00;0.00;;;;;8.17;91.85;99103.84;4985513;28;45416;-73
2022/11/22 07:49:26;;;;;;;;;0.00;0.00;;;;;8.21;92.81;99115.94;4977134;28;45362;-72
2022/11/22 07:51:52;;;;;;;;;1.00;0.00;;;;;8.31;93.20;99126.72;4975917;28;45396;-73
2022/11/22 07:54:17;;;;;;;;;0.00;0.00;;;;;8.22;93.91;99130.94;4986316;28;45520;-72
2022/11/22 07:56:43;;;;;;;;;0.00;0.00;;;;;8.19;94.61;99131.13;4995847;28;45556;-73
2022/11/22 07:59:08;;;;;;;;;0.00;0.00;;;;;8.17;95.40;99122.44;4996703;28;45551;-73
2022/11/22 08:01:33;;;;;;;;;1.75;1.50;;;;;8.17;96.33;99125.09;4996666;28;46692;-74
2022/11/22 08:03:59;;;;;;;;;0.75;0.75;;;;;8.21;96.50;99127.41;4996298;28;45505;-74
2022/11/22 08:06:25;;;;;;;;;1.00;0.00;;;;;8.28;98.29;99138.41;4996258;28;45759;-73
2022/11/22 08:08:50;;;;;;;;;0.50;0.00;;;;;8.00;98.11;99099.81;4996029;28;45482;-72
2022/11/22 08:11:15;;;;;;;;;2.00;0.00;;;;;8.04;98.05;99112.75;4996262;28;45472;-72
2022/11/22 08:13:41;;;;;;;;;1.00;0.00;;;;;7.80;99.23;99061.47;4995054;28;46231;-72
2022/11/22 08:16:09;;;;;;;;;1.75;1.00;;;;;8.30;99.59;99147.13;4996129;28;45463;-73
2022/11/22 08:18:37;;;;;;;;;2.00;1.25;;;;;8.20;99.05;99120.38;4994881;28;45380;-73
2022/11/22 08:21:10;;;;;;;;;6.00;2.00;;;;;8.22;98.10;99136.25;4995887;28;47215;-72
2022/11/22 08:23:37;;;;;;;;;0.50;0.50;;;;;8.25;99.54;99134.19;4978243;28;45790;-72
2022/11/22 08:26:03;;;;;;;;;0.25;0.00;;;;;8.39;99.21;99149.09;4995827;28;45494;-72
2022/11/22 08:28:29;;;;;;;;;1.75;1.00;;;;;7.98;99.24;99084.00;4996108;28;45486;-72
2022/11/22 08:31:07;;;;;;;;;1.00;0.00;;;;;8.39;99.26;99143.78;4995856;28;47502;-72
2022/11/22 08:33:32;;;;;;;;;2.00;0.25;;;;;8.44;99.63;99163.84;4996057;28;45360;-72
2022/11/22 08:35:58;;;;;;;;;0.00;0.00;;;;;8.34;100.00;99139.75;4995101;28;45433;-72
2022/11/22 08:38:24;;;;;;;;;0.75;0.75;;;;;8.41;100.00;99155.13;4994939;28;45697;-72
2022/11/22 08:40:49;;;;;;;;;2.00;1.00;;;;;8.56;100.00;99174.41;4995221;28;45579;-73
2022/11/22 08:43:15;;;;;;;;;0.50;0.50;;;;;8.41;100.00;99144.50;4995780;28;45500;-72
2022/11/22 08:45:40;;;;;;;;;1.50;1.00;;;;;8.63;100.00;99165.97;4995975;28;45420;-73
2022/11/22 08:48:06;;;;;;;;;1.75;0.00;;;;;8.66;99.49;99163.91;4995942;28;45675;-72
2022/11/22 08:50:31;;;;;;;;;1.75;0.00;;;;;8.67;100.00;99165.63;4995713;28;45641;-71
2022/11/22 08:52:58;;;;;;;;;0.00;0.00;;;;;8.19;99.70;99078.88;4995269;28;45340;-71
2022/11/22 08:55:24;;;;;;;;;0.00;0.00;;;;;8.73;98.15;99162.50;4995970;28;45443;-72
2022/11/22 08:57:49;;;;;;;;;0.75;0.00;;;;;8.62;100.00;99125.25;4994656;28;45463;-73
2022/11/22 09:00:15;;;;;;;;;1.00;1.00;;;;;9.04;99.31;99175.22;4993810;28;46701;-71
2022/11/22 09:02:40;;;;;;;;;0.25;0.25;;;;;9.05;96.44;99159.13;4995612;28;45395;-72
2022/11/22 09:05:05;;;;;;;;;0.00;0.00;;;;;9.11;97.41;99155.19;4995453;28;45403;-72
2022/11/22 09:07:31;;;;;;;;;8.50;7.50;;;;;9.27;94.25;99181.41;4995510;28;45410;-72
2022/11/22 09:09:56;;;;;;;;;4.00;2.00;;;;;9.19;95.10;99181.16;4995375;28;46593;-72
2022/11/22 09:12:21;;;;;;;;;14.00;12.50;;;;;8.56;95.22;99064.59;4995133;28;45471;-69
2022/11/22 09:14:47;;;;;;;;;7.00;4.00;;;;;9.34;95.23;99171.97;4995551;28;45433;-69
2022/11/22 09:17:12;;;;;;;;;1.00;0.00;;;;;9.29;93.02;99160.84;4995215;28;45559;-69
2022/11/22 09:19:37;;;;;;;;;13.50;11.25;;;;;9.52;93.06;99188.28;4995279;28;46637;-69
2022/11/22 09:22:03;;;;;;;;;12.00;9.00;;;;;8.59;94.04;99024.50;4995343;28;45407;-68
2022/11/22 09:24:28;;;;;;;;;13.75;11.75;;;;;9.62;91.53;99166.25;4995360;28;45459;-68
2022/11/22 09:26:53;;;;;;;;;2.50;2.00;;;;;9.73;91.77;99175.09;4994928;28;45588;-68
2022/11/22 09:29:19;;;;;;;;;2.50;0.50;;;;;9.70;91.95;99159.34;4993046;28;47199;-69
2022/11/22 09:31:44;;;;;;;;;2.50;0.25;;;;;9.96;89.99;99167.06;4977478;28;45392;-69
2022/11/22 09:34:09;;;;;;;;;1.00;0.00;;;;;9.98;88.82;99178.41;4994987;28;45724;-69
2022/11/22 09:36:35;;;;;;;;;6.75;4.50;;;;;9.70;89.68;99131.88;4977166;28;45614;-69
2022/11/22 09:39:00;;;;;;;;;1.25;0.00;;;;;10.13;89.26;99176.28;4994803;28;46040;-69
2022/11/22 09:41:58;;;;;;;;;0.50;0.50;;;;;10.00;86.96;99176.47;4995028;28;45435;-70
2022/11/22 09:44:26;;;;;;;;;4.00;0.25;;;;;10.04;86.77;99185.03;4956154;28;45345;-70
2022/11/22 09:46:57;;;;;;;;;0.50;0.00;;;;;9.97;87.04;99175.88;4994791;28;45383;-71
2022/11/22 09:49:32;;;;;;;;;1.00;1.00;;;;;10.15;87.82;99189.50;4994581;28;45692;-69
2022/11/22 09:52:13;;;;;;;;;2.50;0.50;;;;;10.19;85.72;99183.81;4994544;28;45391;-70
2022/11/22 09:54:54;;;;;;;;;0.00;0.00;;;;;10.36;85.58;99185.06;4994904;28;45446;-69
2022/11/22 09:57:47;;;;;;;;;2.25;1.00;;;;;10.12;83.71;99131.97;4994581;28;45521;-70
2022/11/22 10:00:23;;;;;;;;;2.25;0.00;;;;;10.37;84.04;99161.97;4993987;28;45716;-70
2022/11/22 10:03:21;;;;;;;;;3.00;1.00;;;;;10.58;84.62;99180.63;4993030;28;45477;-70
2022/11/22 10:05:52;;;;;;;;;2.00;1.00;;;;;10.40;83.07;99154.53;4940489;28;45855;-70
2022/11/22 10:08:24;;;;;;;;;2.50;1.00;;;;;10.73;83.11;99173.13;4974894;28;45347;-69
2022/11/22 10:10:54;;;;;;;;;1.25;1.00;;;;;10.86;82.69;99184.44;4974628;28;45722;-73
2022/11/22 10:13:32;;;;;;;;;0.50;0.50;;;;;10.87;80.98;99185.31;4974572;28;45708;-73
2022/11/22 10:16:15;;;;;;;;;2.00;1.00;;;;;10.93;80.48;99187.44;4975040;28;45331;-73
2022/11/22 10:18:55;;;;;;;;;2.00;1.00;;;;;10.99;79.52;99199.44;4957089;28;45818;-73
2022/11/22 10:21:20;;;;;;;;;0.00;0.00;;;;;11.00;79.87;99193.97;4972316;28;46305;-72
2022/11/22 10:23:46;;;;;;;;;2.00;0.00;;;;;11.18;80.92;99186.19;4987740;28;46007;-73
2022/11/22 10:26:25;;;;;;;;;0.00;0.00;;;;;11.21;78.47;99185.06;4990479;28;45657;-72
2022/11/22 10:28:55;;;;;;;;;1.00;1.00;;;;;11.35;78.61;99168.72;4990795;28;45423;-72
2022/11/22 10:31:35;;;;;;;;;2.00;0.00;;;;;11.60;77.93;99195.91;4990537;28;45464;-72
2022/11/22 10:34:35;;;;;;;;;1.00;0.50;;;;;11.65;76.36;99191.03;4959575;28;45449;-72
2022/11/22 10:37:25;;;;;;;;;0.00;0.00;;;;;11.61;75.19;99200.28;4983982;28;45442;-72
2022/11/22 10:40:28;;;;;;;;;2.75;0.00;;;;;11.66;76.22;99214.09;4992490;28;45478;-72
2022/11/22 10:43:17;;;;;;;;;1.75;1.75;;;;;11.63;75.27;99217.00;4987264;28;45585;-72
2022/11/22 10:45:54;;;;;;;;;1.75;0.25;;;;;11.55;73.70;99222.19;4993266;28;45599;-73
2022/11/22 10:48:35;;;;;;;;;2.50;1.75;;;;;11.57;74.92;99213.06;4991611;28;45498;-72
2022/11/22 10:51:18;;;;;;;;;1.75;0.75;;;;;11.71;74.14;99216.34;4993499;28;45420;-72
2022/11/22 10:54:15;;;;;;;;;1.00;1.00;;;;;11.66;73.72;99210.56;4974806;28;45525;-72
2022/11/22 10:56:49;;;;;;;;;1.75;0.75;;;;;11.69;73.08;99221.81;4994118;28;45488;-73
2022/11/22 10:59:55;;;;;;;;;1.00;1.00;;;;;11.75;74.33;99205.22;5007970;28;45657;-74
2022/11/22 11:02:42;;;;;;;;;1.00;1.00;;;;;11.99;71.79;99236.13;4983194;28;44767;-70
2022/11/22 11:05:28;;;;;;;;;1.00;1.00;;;;;11.93;70.40;99229.50;5007530;28;46437;-71
2022/11/22 11:07:53;;;;;;;;;1.50;0.75;;;;;12.00;71.04;99240.50;4994067;28;45099;-71
2022/11/22 11:10:23;;;;;;;;;2.00;1.00;;;;;12.11;70.23;99226.19;5009818;28;45026;-70
2022/11/22 11:13:00;;;;;;;;;3.25;1.00;;;;;11.99;70.75;99201.41;4990163;28;45581;-69
2022/11/22 11:15:35;;;;;;;;;2.00;2.00;;;;;12.28;70.00;99224.63;4991876;28;46287;-67
2022/11/22 11:18:04;;;;;;;;;2.00;1.00;;;;;12.49;69.49;99229.03;4980407;28;45505;-68
2022/11/22 11:20:37;;;;;;;;;4.67;1.00;;;;;12.70;69.22;99221.72;4988397;28;45791;-68
2022/11/22 11:23:02;;;;;;;;;0.00;0.00;;;;;12.86;69.83;99233.66;4986733;28;45653;-66
2022/11/22 11:25:34;;;;;;;;;1.50;1.00;;;;;12.96;68.35;99234.50;4988707;28;45798;-68
2022/11/22 11:31:40;;;;;;;;;2.25;1.00;;;;;13.11;65.91;99238.41;4976089;28;45439;-68
2022/11/22 11:34:20;;;;;;;;;2.00;0.00;;;;;13.04;67.09;99231.13;4992167;28;45342;-68
2022/11/22 11:36:45;;;;;;;;;2.00;2.00;;;;;12.80;66.32;99176.22;4992784;28;48168;-69
2022/11/22 11:39:27;;;;;;;;;3.00;0.00;;;;;12.96;64.80;99197.03;4992483;28;45360;-70
2022/11/22 11:41:53;;;;;;;;;2.67;1.33;;;;;13.02;66.28;99223.19;4992031;28;45543;-70
2022/11/22 11:44:27;;;;;;;;;0.00;0.00;;;;;13.15;66.45;99225.59;4991944;28;45833;-70
2022/11/22 11:46:53;;;;;;;;;3.00;1.00;;;;;13.07;64.70;99237.00;4992128;28;46497;-69
2022/11/22 11:49:27;;;;;;;;;0.00;0.00;;;;;13.17;65.71;99212.88;4992490;28;45375;-68
2022/11/22 11:51:54;;;;;;;;;3.33;1.00;;;;;13.40;64.97;99232.19;4975861;28;45652;-68
2022/11/22 11:54:40;;;;;;;;;0.67;0.67;;;;;13.44;64.30;99222.84;5001319;28;45380;-69
2022/11/22 11:57:18;;;;;;;;;0.67;0.67;;;;;13.44;63.83;99222.00;4980038;28;48520;-72
2022/11/22 11:59:47;;;;;;;;;2.00;0.00;;;;;13.51;63.88;99228.47;4998039;28;45403;-69
2022/11/22 12:02:15;;;;;;;;;2.00;1.00;;;;;13.53;62.85;99241.72;4978923;28;45490;-70
2022/11/22 12:04:51;;;;;;;;;0.67;0.67;;;;;13.55;62.57;99229.00;4996206;28;45475;-70
2022/11/22 12:07:46;;;;;;;;;0.00;0.00;;;;;13.55;61.36;99247.75;4978311;28;45579;-72